3TX7 weather

Public forecast

Using degrees Fahrenheit for public forecast. Weather courtesy of forecast.io.

Closest aviation weather report (METAR) to Flying P Airport

Closest report is Denton Municipal Airport, 9.4 nm (17.4 km) ENE. Retrieved 2020/08/14 06:53 UTC (47 minutes ago):

KDTO 140653Z AUTO 16009KT 10SM CLR 31/19 A2987 RMK AO2 SLP101 T03060194

Closest aviation forecast (TAF) to Flying P Airport

Closest forecast is Fort Worth Alliance Airport, 9.6 nm (17.7 km) SSE. Retrieved 2020/08/14 06:22 UTC (1 hour ago):

TAF KAFW 140520Z 1406/1506 18011KT P6SM SKC FM141500 22015KT P6SM FEW060 FEW250 FM150100 17010KT P6SM FEW250